Time;durP1;ratioP1;P1;durP2;ratioP2;P2;SDS_P1;SDS_P2;PMS_P1;PMS_P2;Temp;Humidity;BMP_temperature;BMP_pressure;BME280_temperature;BME280_humidity;BME280_pressure;Samples;Min_cycle;Max_cycle;Signal;HPM_P1;HPM_P2
2023/12/22 00:02:12;;;;;;;104.60;98.32;;;12.50;99.90;;;;;;5017408;28;20513;-71
2023/12/22 00:04:39;;;;;;;106.80;100.88;;;12.40;99.90;;;;;;5030228;28;20045;-71
2023/12/22 00:07:05;;;;;;;108.55;101.97;;;12.50;99.90;;;;;;5031856;28;20390;-71
2023/12/22 00:09:31;;;;;;;101.43;95.00;;;12.50;99.90;;;;;;5031844;28;20037;-71
2023/12/22 00:11:57;;;;;;;94.38;88.93;;;12.50;99.90;;;;;;5026626;28;20385;-71
2023/12/22 00:14:23;;;;;;;123.32;115.53;;;12.50;99.90;;;;;;5025395;28;20045;-71
2023/12/22 00:16:49;;;;;;;103.45;97.03;;;12.40;99.90;;;;;;5028777;28;20409;-71
2023/12/22 00:19:15;;;;;;;117.15;109.65;;;12.40;99.90;;;;;;5026487;28;20044;-71
2023/12/22 00:21:41;;;;;;;105.75;98.85;;;12.40;99.90;;;;;;5023770;28;20041;-71
2023/12/22 00:24:07;;;;;;;109.80;102.82;;;12.50;99.90;;;;;;5028642;28;20036;-71
2023/12/22 00:26:33;;;;;;;94.32;88.60;;;12.40;99.90;;;;;;5027722;28;20048;-71
2023/12/22 00:28:59;;;;;;;117.97;111.00;;;12.40;99.90;;;;;;5026582;28;20040;-71
2023/12/22 00:31:25;;;;;;;103.38;96.72;;;12.40;99.90;;;;;;5023842;28;20041;-71
2023/12/22 00:33:51;;;;;;;94.70;88.80;;;12.40;99.90;;;;;;5024201;28;20038;-73
2023/12/22 00:36:20;;;;;;;92.97;87.32;;;12.40;99.90;;;;;;5024540;28;20393;-71
2023/12/22 00:38:46;;;;;;;97.00;91.03;;;12.40;99.90;;;;;;5023467;28;20052;-71
2023/12/22 00:41:13;;;;;;;99.63;93.22;;;12.40;99.90;;;;;;5024194;28;20037;-71
2023/12/22 00:43:39;;;;;;;99.40;92.70;;;12.40;99.90;;;;;;5023528;28;20029;-71
2023/12/22 00:46:05;;;;;;;95.78;89.50;;;12.40;99.90;;;;;;5027478;28;20032;-71
2023/12/22 00:48:31;;;;;;;98.15;92.47;;;12.50;99.90;;;;;;5026523;28;21445;-71
2023/12/22 00:50:57;;;;;;;98.93;92.55;;;12.50;99.90;;;;;;5023473;28;20033;-71
2023/12/22 00:53:23;;;;;;;94.63;88.70;;;12.50;99.90;;;;;;5022965;28;20401;-75
2023/12/22 00:55:49;;;;;;;107.00;100.32;;;12.50;99.90;;;;;;5024420;28;20049;-75
2023/12/22 00:58:15;;;;;;;101.35;94.57;;;12.50;99.90;;;;;;5029620;28;20402;-75
2023/12/22 01:00:41;;;;;;;101.45;94.90;;;12.40;99.90;;;;;;5029551;28;20049;-75
2023/12/22 01:03:07;;;;;;;102.53;95.90;;;12.40;99.90;;;;;;5029539;28;20379;-74
2023/12/22 01:05:34;;;;;;;108.53;101.68;;;12.50;99.90;;;;;;5026234;28;20032;-75
2023/12/22 01:08:00;;;;;;;118.95;111.47;;;12.40;99.90;;;;;;5023340;28;20037;-75
2023/12/22 01:10:26;;;;;;;124.65;117.05;;;12.40;99.90;;;;;;5029345;28;20417;-75
2023/12/22 01:12:52;;;;;;;102.65;96.28;;;12.40;99.90;;;;;;5023902;28;20026;-75
2023/12/22 01:15:18;;;;;;;93.28;87.28;;;12.40;99.90;;;;;;5027066;28;20513;-75
2023/12/22 01:17:44;;;;;;;98.05;91.35;;;12.30;99.90;;;;;;5026216;28;20191;-75
2023/12/22 01:20:10;;;;;;;108.15;101.30;;;12.30;99.90;;;;;;5024095;28;20057;-75
2023/12/22 01:22:38;;;;;;;98.22;92.40;;;12.30;99.90;;;;;;5027924;28;20474;-75
2023/12/22 01:25:05;;;;;;;95.43;89.05;;;12.30;99.90;;;;;;5024476;28;20037;-75
2023/12/22 01:27:31;;;;;;;120.82;113.63;;;12.20;99.90;;;;;;5009730;28;20045;-74
2023/12/22 01:29:57;;;;;;;122.45;115.35;;;12.30;99.90;;;;;;5027161;28;20025;-74
2023/12/22 01:32:23;;;;;;;98.03;92.25;;;12.20;99.90;;;;;;5030237;28;20041;-75
2023/12/22 01:34:49;;;;;;;99.75;93.40;;;12.20;99.90;;;;;;5033416;28;20048;-75
2023/12/22 01:37:15;;;;;;;105.47;98.55;;;12.20;99.90;;;;;;5031552;28;20037;-75
2023/12/22 01:39:42;;;;;;;98.22;91.78;;;12.20;99.90;;;;;;5011422;28;20087;-75
2023/12/22 01:42:08;;;;;;;94.80;88.38;;;12.20;99.90;;;;;;5032779;28;20037;-75
2023/12/22 01:44:34;;;;;;;94.57;88.97;;;12.20;99.90;;;;;;5027598;28;20033;-75
2023/12/22 01:47:00;;;;;;;88.07;82.47;;;12.10;99.90;;;;;;5028305;28;20053;-74
2023/12/22 01:49:26;;;;;;;88.10;82.07;;;12.10;99.90;;;;;;5014912;28;20022;-75
2023/12/22 01:51:52;;;;;;;99.90;93.25;;;12.00;99.90;;;;;;5009618;28;20044;-75
2023/12/22 01:54:18;;;;;;;94.57;88.35;;;12.00;99.90;;;;;;5025876;28;20038;-75
2023/12/22 01:56:45;;;;;;;90.18;84.05;;;12.00;99.90;;;;;;5027112;28;20037;-74
2023/12/22 01:59:11;;;;;;;86.75;81.35;;;12.00;99.90;;;;;;5028294;28;20029;-75
2023/12/22 02:01:37;;;;;;;91.75;85.85;;;12.00;99.90;;;;;;5025844;28;20536;-74
2023/12/22 02:04:03;;;;;;;74.55;69.88;;;12.00;99.90;;;;;;5013260;28;20041;-75
2023/12/22 02:06:30;;;;;;;76.43;71.25;;;11.90;99.90;;;;;;5010407;28;20056;-75
2023/12/22 02:08:57;;;;;;;81.03;75.78;;;11.90;99.90;;;;;;5021812;28;20029;-75
2023/12/22 02:11:23;;;;;;;80.47;75.47;;;11.90;99.90;;;;;;5025647;28;20038;-75
2023/12/22 02:13:49;;;;;;;77.50;72.85;;;12.00;99.90;;;;;;5012182;28;20286;-75
2023/12/22 02:16:46;;;;;;;87.60;82.18;;;12.00;99.90;;;;;;5028537;28;20033;-75
2023/12/22 02:19:36;;;;;;;72.90;68.32;;;12.00;99.90;;;;;;5012191;28;20042;-74
2023/12/22 02:22:03;;;;;;;80.18;75.28;;;11.90;99.90;;;;;;4999870;28;20069;-75
2023/12/22 02:24:30;;;;;;;69.07;64.53;;;11.90;99.90;;;;;;5027895;28;20438;-74
2023/12/22 02:27:01;;;;;;;64.63;60.08;;;11.90;99.90;;;;;;5012835;28;20398;-75
2023/12/22 02:29:27;;;;;;;;;;;11.90;99.90;;;;;;5009420;28;20461;-75
2023/12/22 02:31:53;;;;;;;53.33;49.30;;;11.90;99.90;;;;;;5023161;28;19924;-75
2023/12/22 02:34:19;;;;;;;59.92;55.97;;;11.90;99.90;;;;;;5022448;28;20029;-74
2023/12/22 02:36:46;;;;;;;65.03;60.83;;;11.80;99.90;;;;;;5010534;28;20033;-74
2023/12/22 02:39:12;;;;;;;61.70;57.45;;;11.80;99.90;;;;;;5021903;28;20382;-74
2023/12/22 02:41:38;;;;;;;59.67;55.25;;;11.80;99.90;;;;;;5031033;28;20060;-75
2023/12/22 02:44:04;;;;;;;57.05;53.05;;;11.80;99.90;;;;;;5027562;28;20052;-71
2023/12/22 02:46:30;;;;;;;87.78;82.25;;;11.70;99.90;;;;;;5032680;28;20042;-71
2023/12/22 02:48:56;;;;;;;88.10;82.63;;;11.70;99.90;;;;;;5033755;28;20034;-71
2023/12/22 02:51:22;;;;;;;61.97;57.65;;;11.80;99.90;;;;;;5033341;28;20030;-71
2023/12/22 02:53:48;;;;;;;96.55;90.38;;;11.70;99.90;;;;;;5033658;28;20346;-71
2023/12/22 02:56:15;;;;;;;101.60;95.38;;;11.70;99.90;;;;;;5033071;28;20041;-71
2023/12/22 02:58:41;;;;;;;106.70;99.70;;;11.70;99.90;;;;;;5032551;28;20094;-71
2023/12/22 03:01:07;;;;;;;89.18;83.35;;;11.80;99.90;;;;;;5032346;28;20474;-71
2023/12/22 03:03:33;;;;;;;91.22;85.47;;;11.80;99.90;;;;;;5033222;28;20045;-71
2023/12/22 03:05:59;;;;;;;85.93;80.32;;;11.80;99.90;;;;;;5031758;28;20481;-71
2023/12/22 03:08:25;;;;;;;88.22;82.53;;;11.80;99.90;;;;;;5032994;28;20072;-71
2023/12/22 03:10:51;;;;;;;90.45;84.85;;;11.80;99.90;;;;;;5018028;28;20025;-71
2023/12/22 03:13:17;;;;;;;88.10;82.63;;;11.80;99.90;;;;;;5031592;28;20044;-71
2023/12/22 03:15:43;;;;;;;98.93;92.78;;;11.80;99.90;;;;;;5013112;28;20450;-71
2023/12/22 03:18:09;;;;;;;96.07;89.80;;;11.90;99.90;;;;;;5031101;28;20026;-71
2023/12/22 03:20:35;;;;;;;103.03;96.68;;;11.90;99.90;;;;;;5031127;28;20056;-71
2023/12/22 03:23:02;;;;;;;110.97;103.75;;;11.80;99.90;;;;;;5047025;28;20037;-71
2023/12/22 03:25:28;;;;;;;113.97;107.00;;;11.80;99.90;;;;;;5031359;28;20041;-71
2023/12/22 03:27:54;;;;;;;105.18;98.75;;;11.80;99.90;;;;;;5047179;28;20045;-71
2023/12/22 03:30:20;;;;;;;101.78;95.40;;;11.80;99.90;;;;;;5029536;28;20053;-71
2023/12/22 03:32:46;;;;;;;102.35;95.65;;;11.80;99.90;;;;;;5032202;28;20033;-71
2023/12/22 03:35:12;;;;;;;94.95;88.93;;;11.80;99.90;;;;;;5031503;28;20033;-71
2023/12/22 03:37:38;;;;;;;103.63;97.38;;;11.80;99.90;;;;;;5031623;28;20060;-71
2023/12/22 03:40:05;;;;;;;80.57;75.55;;;11.80;99.90;;;;;;5014505;28;20470;-70
2023/12/22 03:42:31;;;;;;;82.13;76.72;;;11.90;99.90;;;;;;5029905;28;20401;-71
2023/12/22 03:44:57;;;;;;;77.82;72.13;;;11.90;99.90;;;;;;5029776;28;20044;-71
2023/12/22 03:47:23;;;;;;;74.72;69.47;;;11.80;99.90;;;;;;5031655;28;20498;-74
2023/12/22 03:49:49;;;;;;;76.82;71.97;;;11.80;99.90;;;;;;5030209;28;20046;-75
2023/12/22 03:52:15;;;;;;;64.45;59.88;;;11.80;99.90;;;;;;5031001;28;20052;-75
2023/12/22 03:54:41;;;;;;;63.75;59.22;;;11.80;99.90;;;;;;5031725;28;20029;-75
2023/12/22 03:57:07;;;;;;;67.47;62.63;;;11.80;99.90;;;;;;5031545;28;20037;-75
2023/12/22 03:59:33;;;;;;;67.68;63.20;;;11.80;99.90;;;;;;5030503;28;20029;-74
2023/12/22 04:02:01;;;;;;;72.45;67.82;;;11.80;99.90;;;;;;5030144;28;20033;-74
2023/12/22 04:04:28;;;;;;;70.00;65.22;;;11.80;99.90;;;;;;5030995;28;20037;-75
2023/12/22 04:06:54;;;;;;;82.30;77.07;;;11.80;99.90;;;;;;5028808;28;20026;-75
2023/12/22 04:09:20;;;;;;;94.82;89.18;;;11.80;99.90;;;;;;5023847;28;20037;-75
2023/12/22 04:11:46;;;;;;;70.60;66.00;;;11.80;99.90;;;;;;5027522;28;20041;-75
2023/12/22 04:14:12;;;;;;;65.15;61.00;;;11.80;99.90;;;;;;5025328;28;20037;-74
2023/12/22 04:16:38;;;;;;;78.28;73.53;;;11.80;99.90;;;;;;5030263;28;20033;-75
2023/12/22 04:19:04;;;;;;;65.28;61.10;;;11.80;99.90;;;;;;5022892;28;20040;-75
2023/12/22 04:21:30;;;;;;;76.10;71.45;;;11.80;99.90;;;;;;5022723;28;20397;-74
2023/12/22 04:23:56;;;;;;;86.10;80.32;;;11.80;99.90;;;;;;5025007;28;20085;-74
2023/12/22 04:26:23;;;;;;;111.85;105.30;;;11.80;99.90;;;;;;5027377;28;20399;-74
2023/12/22 04:28:49;;;;;;;100.53;94.05;;;11.80;99.90;;;;;;5030113;28;20041;-74
2023/12/22 04:31:15;;;;;;;86.35;80.65;;;11.80;99.90;;;;;;5030282;28;20041;-75
2023/12/22 04:33:41;;;;;;;72.15;67.65;;;11.80;99.90;;;;;;5026839;28;20041;-75
2023/12/22 04:36:07;;;;;;;78.50;73.75;;;11.80;99.90;;;;;;5023016;28;20033;-75
2023/12/22 04:38:33;;;;;;;76.93;72.20;;;11.90;99.90;;;;;;5026367;28;20539;-75
2023/12/22 04:40:59;;;;;;;75.88;70.57;;;11.80;99.90;;;;;;5023875;28;20042;-75
2023/12/22 04:43:25;;;;;;;73.63;68.82;;;11.80;99.90;;;;;;5012642;28;20033;-74
2023/12/22 04:45:51;;;;;;;84.68;78.95;;;11.90;99.90;;;;;;5030409;28;20038;-74
2023/12/22 04:48:18;;;;;;;80.40;75.07;;;11.90;99.90;;;;;;5014033;28;20044;-73
2023/12/22 04:50:44;;;;;;;80.45;75.13;;;11.80;99.90;;;;;;5029066;28;20505;-72
2023/12/22 04:53:10;;;;;;;93.32;87.47;;;11.80;99.90;;;;;;5031634;28;20034;-72
2023/12/22 04:55:36;;;;;;;105.50;99.13;;;11.90;99.90;;;;;;5034198;28;20481;-72
2023/12/22 04:58:02;;;;;;;108.05;101.70;;;11.90;99.90;;;;;;5029851;28;20040;-72
2023/12/22 05:00:28;;;;;;;107.80;101.35;;;11.90;99.90;;;;;;5029370;28;20045;-72
2023/12/22 05:02:54;;;;;;;102.82;96.45;;;11.90;99.90;;;;;;5028662;28;20033;-71
2023/12/22 05:05:20;;;;;;;68.43;64.00;;;11.90;99.90;;;;;;5029915;28;20046;-71
2023/12/22 05:07:46;;;;;;;63.72;59.83;;;11.90;99.90;;;;;;5034510;28;20029;-72
2023/12/22 05:10:12;;;;;;;70.32;65.75;;;11.90;99.90;;;;;;5033494;28;20033;-72
2023/12/22 05:12:38;;;;;;;82.82;77.43;;;11.90;99.90;;;;;;5034284;28;20037;-72
2023/12/22 05:15:05;;;;;;;65.32;60.90;;;11.90;99.90;;;;;;5027710;28;20041;-71
2023/12/22 05:17:32;;;;;;;79.00;73.30;;;11.90;99.90;;;;;;5033832;28;20037;-72
2023/12/22 05:19:58;;;;;;;76.50;71.75;;;12.00;99.90;;;;;;5034226;28;20032;-72
2023/12/22 05:22:25;;;;;;;80.32;75.18;;;11.90;99.90;;;;;;5032359;28;20566;-71
2023/12/22 05:24:51;;;;;;;62.70;58.50;;;11.90;99.90;;;;;;5033572;28;20029;-72
2023/12/22 05:27:18;;;;;;;87.65;82.30;;;11.90;99.90;;;;;;5033365;28;20033;-72
2023/12/22 05:29:44;;;;;;;62.15;58.17;;;11.90;99.90;;;;;;5033756;28;20524;-72
2023/12/22 05:32:10;;;;;;;63.80;59.55;;;11.90;99.90;;;;;;5032161;28;20041;-72
2023/12/22 05:34:36;;;;;;;67.70;63.25;;;11.90;99.90;;;;;;5034317;28;20033;-72
2023/12/22 05:37:03;;;;;;;64.60;60.20;;;11.90;99.90;;;;;;5031155;28;20033;-72
2023/12/22 05:39:29;;;;;;;69.72;64.28;;;12.00;99.90;;;;;;5030865;28;20045;-71
2023/12/22 05:41:55;;;;;;;91.75;82.93;;;12.00;99.90;;;;;;5032084;28;20593;-71
2023/12/22 05:44:23;;;;;;;62.08;58.00;;;12.00;99.90;;;;;;5010709;28;20042;-71
2023/12/22 05:46:50;;;;;;;76.38;71.78;;;12.00;99.90;;;;;;5027448;28;20041;-71
2023/12/22 05:49:16;;;;;;;90.68;84.70;;;12.00;99.90;;;;;;5016712;28;20034;-72
2023/12/22 05:51:42;;;;;;;111.50;74.25;;;11.90;99.90;;;;;;5015707;28;20521;-75
2023/12/22 05:54:08;;;;;;;72.90;67.25;;;11.90;99.90;;;;;;5028600;28;20036;-75
2023/12/22 05:56:34;;;;;;;61.65;57.83;;;11.90;99.90;;;;;;5032492;28;20025;-74
2023/12/22 05:59:00;;;;;;;71.80;67.22;;;11.90;99.90;;;;;;5034329;28;20037;-75
2023/12/22 06:01:27;;;;;;;91.25;86.00;;;11.90;99.90;;;;;;5033521;28;20060;-75
2023/12/22 06:03:53;;;;;;;69.00;65.18;;;11.90;99.90;;;;;;5033059;28;20037;-75
2023/12/22 06:06:19;;;;;;;74.70;70.45;;;11.90;99.90;;;;;;5033437;28;20021;-75
2023/12/22 06:08:45;;;;;;;83.93;79.45;;;11.90;99.90;;;;;;5034102;28;20036;-74
2023/12/22 06:11:12;;;;;;;93.63;88.53;;;12.00;99.90;;;;;;5031459;28;20022;-74
2023/12/22 06:13:38;;;;;;;100.47;95.15;;;11.90;99.90;;;;;;5031720;28;20037;-75
2023/12/22 06:16:05;;;;;;;113.47;107.47;;;11.90;99.90;;;;;;5032499;28;20048;-74
2023/12/22 06:18:31;;;;;;;115.85;109.55;;;11.90;99.90;;;;;;5032385;28;20040;-75
2023/12/22 06:20:57;;;;;;;91.88;87.15;;;12.00;99.90;;;;;;5035181;28;20129;-75
2023/12/22 06:23:23;;;;;;;115.65;109.60;;;12.00;99.90;;;;;;5034896;28;20032;-74
2023/12/22 06:25:49;;;;;;;96.65;91.40;;;12.00;99.90;;;;;;5035879;28;20036;-74
2023/12/22 06:28:16;;;;;;;93.93;88.95;;;12.00;99.90;;;;;;5041315;28;20021;-75
2023/12/22 06:30:43;;;;;;;95.80;90.75;;;12.00;99.90;;;;;;5031644;28;20030;-75
2023/12/22 06:33:10;;;;;;;107.57;101.85;;;12.10;99.90;;;;;;5031335;28;20378;-74
2023/12/22 06:35:37;;;;;;;86.15;81.57;;;12.10;99.90;;;;;;5030500;28;20029;-74
2023/12/22 06:38:05;;;;;;;82.32;78.13;;;12.00;99.90;;;;;;5030077;28;20024;-75
2023/12/22 06:40:31;;;;;;;76.15;72.03;;;12.00;99.90;;;;;;5031554;28;20033;-74
2023/12/22 06:42:57;;;;;;;116.57;110.38;;;12.00;99.90;;;;;;5030733;28;20040;-74
2023/12/22 06:45:23;;;;;;;101.78;96.40;;;12.00;99.90;;;;;;5031736;28;20034;-74
2023/12/22 06:47:49;;;;;;;87.18;82.80;;;12.00;99.90;;;;;;5030732;28;20378;-74
2023/12/22 06:50:15;;;;;;;107.38;101.95;;;12.00;99.90;;;;;;5030143;28;20028;-74
2023/12/22 06:52:42;;;;;;;115.90;110.00;;;12.00;99.90;;;;;;5032568;28;20477;-74
2023/12/22 06:55:08;;;;;;;119.97;113.95;;;12.00;99.90;;;;;;5016731;28;20053;-74
2023/12/22 06:57:34;;;;;;;79.45;75.35;;;12.00;99.90;;;;;;5031701;28;20056;-74
2023/12/22 07:00:00;;;;;;;82.60;78.25;;;12.00;99.90;;;;;;5034420;28;20045;-72
2023/12/22 07:02:26;;;;;;;76.75;72.75;;;12.00;99.90;;;;;;5029770;28;20482;-72
2023/12/22 07:05:22;;;;;;;83.90;79.35;;;12.10;99.90;;;;;;5030759;28;20021;-72
2023/12/22 07:07:49;;;;;;;78.53;74.50;;;12.00;99.90;;;;;;5029103;28;20053;-72
2023/12/22 07:10:15;;;;;;;91.10;86.32;;;12.00;99.90;;;;;;5031541;28;20030;-71
2023/12/22 07:12:41;;;;;;;122.90;116.53;;;12.00;99.90;;;;;;5028358;28;20029;-72
2023/12/22 07:15:07;;;;;;;119.30;112.97;;;12.00;99.90;;;;;;5027862;28;20462;-72
2023/12/22 07:17:34;;;;;;;140.20;133.05;;;12.00;99.90;;;;;;5007577;28;20380;-72
2023/12/22 07:20:03;;;;;;;156.65;148.63;;;12.00;99.90;;;;;;4997217;28;20040;-72
2023/12/22 07:22:30;;;;;;;136.75;129.93;;;12.00;99.90;;;;;;5031534;28;20044;-72
2023/12/22 07:24:56;;;;;;;100.70;95.47;;;12.00;99.90;;;;;;5019621;28;20036;-72
2023/12/22 07:27:22;;;;;;;72.90;69.05;;;12.00;99.90;;;;;;5041381;28;20041;-72
2023/12/22 07:29:48;;;;;;;84.03;79.68;;;12.00;99.90;;;;;;5051453;28;20405;-72
2023/12/22 07:32:14;;;;;;;79.65;75.72;;;12.10;99.90;;;;;;5048931;28;20033;-72
2023/12/22 07:34:40;;;;;;;96.78;91.63;;;12.10;99.90;;;;;;5030081;28;20026;-72
2023/12/22 07:37:06;;;;;;;103.40;98.18;;;12.10;99.90;;;;;;5031457;28;20036;-72
2023/12/22 07:39:32;;;;;;;76.28;72.40;;;12.10;99.90;;;;;;5032072;28;20025;-72
2023/12/22 07:41:58;;;;;;;102.15;97.13;;;12.10;99.90;;;;;;5032294;28;20037;-72
2023/12/22 07:44:24;;;;;;;102.70;97.57;;;12.10;99.90;;;;;;5031589;28;20040;-72
2023/12/22 07:46:58;;;;;;;134.73;128.00;;;12.10;99.90;;;;;;5031338;28;20037;-72
2023/12/22 07:49:24;;;;;;;247.52;234.93;;;12.10;99.90;;;;;;5030645;28;20022;-72
2023/12/22 07:51:52;;;;;;;234.10;222.40;;;12.00;99.90;;;;;;5030888;28;20025;-72
2023/12/22 07:54:18;;;;;;;281.27;266.73;;;12.00;99.90;;;;;;5013555;28;20512;-72
2023/12/22 07:56:47;;;;;;;93.60;88.72;;;12.00;99.90;;;;;;5003991;28;20433;-72
2023/12/22 07:59:13;;;;;;;101.50;96.00;;;12.00;99.90;;;;;;5030923;28;20037;-73
2023/12/22 08:01:40;;;;;;;76.43;72.70;;;12.00;99.90;;;;;;5046250;28;20045;-73
2023/12/22 08:04:06;;;;;;;84.35;80.15;;;12.00;99.90;;;;;;5029431;28;20478;-75
2023/12/22 08:06:33;;;;;;;76.50;72.70;;;12.00;99.90;;;;;;5030863;28;20033;-76
2023/12/22 08:08:59;;;;;;;109.93;104.03;;;11.90;99.90;;;;;;4988928;28;20028;-75
2023/12/22 08:11:25;;;;;;;82.38;78.30;;;11.80;99.90;;;;;;5021367;28;20300;-75
2023/12/22 08:13:51;;;;;;;94.03;82.72;;;11.80;99.90;;;;;;5002310;28;20036;-76
2023/12/22 08:16:17;;;;;;;68.43;65.05;;;11.90;99.90;;;;;;5026426;28;20042;-76
2023/12/22 08:18:43;;;;;;;74.63;70.72;;;11.90;99.90;;;;;;5028230;28;20500;-75
2023/12/22 08:21:09;;;;;;;90.50;84.72;;;11.80;99.90;;;;;;5024746;28;20057;-76
2023/12/22 08:23:35;;;;;;;76.75;72.10;;;11.80;99.90;;;;;;5023342;28;20394;-75
2023/12/22 08:26:01;;;;;;;86.47;82.13;;;11.90;99.90;;;;;;5029252;28;21296;-75
2023/12/22 08:28:27;;;;;;;95.68;86.72;;;12.00;99.90;;;;;;5020822;28;20029;-76
2023/12/22 08:30:53;;;;;;;69.80;66.22;;;12.00;99.90;;;;;;5029019;28;20034;-76
2023/12/22 08:33:20;;;;;;;80.40;76.32;;;12.00;99.90;;;;;;5028301;28;20041;-75
2023/12/22 08:35:46;;;;;;;88.78;84.32;;;12.00;99.90;;;;;;5004384;28;20367;-75
2023/12/22 08:38:13;;;;;;;84.85;80.55;;;11.90;99.90;;;;;;5029041;28;20089;-75
2023/12/22 08:40:39;;;;;;;89.68;85.05;;;12.00;99.90;;;;;;5031574;28;20512;-74
2023/12/22 08:43:06;;;;;;;119.30;113.28;;;12.00;99.90;;;;;;5029805;28;20078;-75
2023/12/22 08:45:32;;;;;;;86.65;82.25;;;11.90;99.90;;;;;;5026197;28;20048;-74
2023/12/22 08:47:58;;;;;;;123.68;117.47;;;11.90;99.90;;;;;;5030764;28;20030;-73
2023/12/22 08:50:25;;;;;;;104.43;99.03;;;11.90;99.90;;;;;;5015971;28;20030;-73
2023/12/22 08:52:51;;;;;;;92.05;87.30;;;12.00;99.90;;;;;;5032048;28;20048;-74
2023/12/22 08:55:17;;;;;;;96.38;91.53;;;12.00;99.90;;;;;;5034324;28;20040;-74
2023/12/22 08:57:43;;;;;;;80.60;76.45;;;12.00;99.90;;;;;;5033672;28;20033;-74
2023/12/22 09:00:10;;;;;;;100.63;95.47;;;11.90;99.90;;;;;;5034393;28;20029;-74
2023/12/22 09:02:36;;;;;;;89.35;84.80;;;12.00;99.90;;;;;;5024651;28;20057;-74
2023/12/22 09:05:02;;;;;;;71.63;67.80;;;11.90;99.90;;;;;;5034622;28;20035;-74
2023/12/22 09:07:28;;;;;;;87.53;82.50;;;11.90;99.90;;;;;;5030613;28;20044;-74
2023/12/22 09:09:54;;;;;;;77.07;73.18;;;11.90;99.90;;;;;;5033023;28;20038;-73
2023/12/22 09:12:20;;;;;;;105.13;99.45;;;11.90;99.90;;;;;;5033051;28;20025;-73
2023/12/22 09:14:46;;;;;;;98.72;93.78;;;11.90;99.90;;;;;;5034218;28;20032;-72
2023/12/22 09:17:13;;;;;;;99.00;93.43;;;11.90;99.90;;;;;;5030524;28;20042;-72
2023/12/22 09:19:39;;;;;;;127.97;121.40;;;12.00;99.90;;;;;;5032178;28;20408;-72
2023/12/22 09:22:05;;;;;;;104.68;98.47;;;11.90;99.90;;;;;;5020194;28;20514;-72
2023/12/22 09:24:31;;;;;;;108.97;101.47;;;12.00;99.90;;;;;;5030873;28;20030;-73
2023/12/22 09:27:02;;;;;;;165.98;111.70;;;12.10;99.90;;;;;;5033140;28;20397;-73
2023/12/22 09:29:35;;;;;;;120.47;114.32;;;12.20;99.90;;;;;;5034967;28;20021;-71
2023/12/22 09:32:01;;;;;;;94.28;89.38;;;12.20;99.90;;;;;;5032761;28;20041;-72
2023/12/22 09:34:27;;;;;;;129.98;123.55;;;12.30;99.90;;;;;;5023383;28;20033;-72
2023/12/22 09:36:54;;;;;;;102.22;96.97;;;12.20;99.90;;;;;;5014658;28;20068;-72
2023/12/22 09:39:20;;;;;;;168.77;159.93;;;12.20;99.90;;;;;;5026094;28;20089;-73
2023/12/22 09:41:48;;;;;;;130.40;123.78;;;12.20;99.90;;;;;;5033665;28;20401;-72
2023/12/22 09:44:24;;;;;;;202.57;192.32;;;12.20;99.90;;;;;;5030661;28;20033;-72
2023/12/22 09:46:50;;;;;;;166.00;157.30;;;12.10;99.90;;;;;;5031233;28;20494;-73
2023/12/22 09:49:20;;;;;;;174.45;165.30;;;12.10;99.90;;;;;;5015345;28;20034;-72
2023/12/22 09:51:46;;;;;;;172.52;163.63;;;12.10;99.90;;;;;;5030834;28;20037;-72
2023/12/22 09:54:13;;;;;;;199.18;188.25;;;12.10;99.90;;;;;;5032082;28;20025;-72
2023/12/22 09:56:42;;;;;;;112.55;106.55;;;12.00;99.90;;;;;;5032575;28;20492;-72
2023/12/22 09:59:15;;;;;;;114.00;107.95;;;12.00;99.90;;;;;;5015014;28;20044;-72
2023/12/22 10:01:44;;;;;;;104.32;99.00;;;12.00;99.90;;;;;;5027457;28;20056;-72
2023/12/22 10:04:10;;;;;;;126.47;119.63;;;12.00;99.90;;;;;;5027561;28;20037;-72
2023/12/22 10:06:36;;;;;;;135.57;128.20;;;12.00;99.90;;;;;;5031273;28;20029;-70
2023/12/22 10:09:05;;;;;;;169.68;160.55;;;12.00;99.90;;;;;;5032276;28;20037;-70
2023/12/22 10:11:32;;;;;;;136.88;129.55;;;12.00;99.90;;;;;;5032725;28;20048;-70
2023/12/22 10:13:59;;;;;;;133.25;124.70;;;12.00;99.90;;;;;;4989967;28;20060;-73
2023/12/22 10:16:25;;;;;;;113.75;107.68;;;12.00;99.90;;;;;;5008376;28;20045;-73
2023/12/22 10:18:51;;;;;;;115.75;109.85;;;12.00;99.90;;;;;;5033009;28;20040;-73
2023/12/22 10:21:18;;;;;;;123.97;117.28;;;11.90;99.90;;;;;;5031599;28;20489;-73
2023/12/22 10:23:44;;;;;;;120.80;114.47;;;12.00;99.90;;;;;;5032061;28;20029;-73
2023/12/22 10:26:13;;;;;;;109.65;103.93;;;12.00;99.90;;;;;;5031843;28;20378;-74
2023/12/22 10:28:40;;;;;;;108.25;102.15;;;12.00;99.90;;;;;;5013828;28;20401;-74
2023/12/22 10:31:07;;;;;;;118.93;112.47;;;12.00;99.90;;;;;;5031460;28;20033;-73
2023/12/22 10:33:33;;;;;;;174.35;164.93;;;12.00;99.90;;;;;;5032024;28;20045;-74
2023/12/22 10:36:00;;;;;;;266.90;252.32;;;12.00;99.90;;;;;;5030938;28;20029;-74
2023/12/22 10:38:32;;;;;;;152.13;143.73;;;11.90;99.90;;;;;;5031839;28;20037;-77
2023/12/22 10:40:58;;;;;;;213.20;201.38;;;11.90;99.90;;;;;;5031594;28;20369;-73
2023/12/22 10:43:24;;;;;;;168.88;159.70;;;12.00;99.90;;;;;;5020954;28;20040;-73
2023/12/22 10:45:52;;;;;;;135.18;127.75;;;12.20;99.90;;;;;;5028704;28;20474;-75
2023/12/22 10:48:18;;;;;;;214.68;203.38;;;12.30;99.90;;;;;;5029506;28;20037;-79
2023/12/22 10:50:47;;;;;;;271.10;256.67;;;12.40;99.90;;;;;;5012494;28;20386;-79
2023/12/22 10:53:13;;;;;;;196.65;185.88;;;12.50;99.90;;;;;;5029478;28;20453;-80
2023/12/22 10:55:39;;;;;;;220.27;207.50;;;12.50;99.90;;;;;;5030138;28;20026;-79
2023/12/22 10:58:05;;;;;;;209.27;197.77;;;12.60;99.90;;;;;;5003347;28;20041;-80
2023/12/22 11:00:37;;;;;;;391.33;368.42;;;12.60;99.90;;;;;;5003598;28;20041;-80
2023/12/22 11:03:06;;;;;;;136.32;128.48;;;12.60;99.90;;;;;;5012884;28;20033;-80
2023/12/22 11:05:33;;;;;;;153.73;144.85;;;12.60;99.90;;;;;;5028813;28;20766;-81
2023/12/22 11:08:02;;;;;;;188.40;177.45;;;12.50;99.90;;;;;;4989752;28;20045;-76
2023/12/22 11:10:28;;;;;;;314.52;296.65;;;12.50;99.90;;;;;;5020861;28;20025;-72
2023/12/22 11:12:54;;;;;;;256.27;241.90;;;12.50;99.90;;;;;;5022857;28;20048;-71
2023/12/22 11:15:20;;;;;;;194.52;183.77;;;12.60;99.90;;;;;;5004395;28;20398;-72
2023/12/22 11:17:47;;;;;;;161.80;152.68;;;12.60;99.90;;;;;;4985384;28;20050;-72
2023/12/22 11:20:13;;;;;;;215.30;202.10;;;12.80;99.90;;;;;;5006359;28;20764;-72
2023/12/22 11:22:40;;;;;;;601.25;345.10;;;12.70;99.90;;;;;;5019741;28;20041;-74
2023/12/22 11:25:07;;;;;;;1542.57;790.15;;;12.80;99.90;;;;;;4988274;28;20435;-74
2023/12/22 11:27:33;;;;;;;147.57;139.07;;;12.80;99.90;;;;;;5012281;28;20056;-70
2023/12/22 11:29:59;;;;;;;134.13;125.50;;;12.80;99.90;;;;;;5012712;28;20501;-63
2023/12/22 11:32:25;;;;;;;157.65;148.13;;;12.80;99.90;;;;;;5002980;28;20041;-62
2023/12/22 11:34:52;;;;;;;1999.90;999.90;;;12.80;99.90;;;;;;5021069;28;20496;-62
2023/12/22 11:37:18;;;;;;;188.90;178.50;;;12.90;99.90;;;;;;5018492;28;20041;-62
2023/12/22 11:39:44;;;;;;;189.68;178.52;;;12.90;99.90;;;;;;5014612;28;20042;-62
2023/12/22 11:42:23;;;;;;;164.52;154.77;;;12.90;99.90;;;;;;5000277;28;20050;-62
2023/12/22 11:44:49;;;;;;;132.20;124.45;;;13.00;99.90;;;;;;5018018;28;20021;-62
2023/12/22 11:47:15;;;;;;;202.77;191.25;;;13.00;99.90;;;;;;5016579;28;20048;-65
2023/12/22 11:49:41;;;;;;;156.98;148.00;;;12.90;99.90;;;;;;5016223;28;20409;-71
2023/12/22 11:52:14;;;;;;;167.27;157.00;;;12.90;99.90;;;;;;5018678;28;20041;-68
2023/12/22 11:54:51;;;;;;;120.90;113.30;;;12.90;99.90;;;;;;5000017;28;20036;-72
2023/12/22 11:57:37;;;;;;;612.47;355.55;;;12.80;99.90;;;;;;5001309;28;20041;-69
2023/12/22 12:00:07;;;;;;;140.63;132.68;;;12.90;99.90;;;;;;5019843;28;20036;-69
2023/12/22 12:02:35;;;;;;;1071.53;567.15;;;12.90;99.90;;;;;;5018928;28;20247;-69
2023/12/22 12:05:02;;;;;;;602.53;346.08;;;12.90;99.90;;;;;;5002332;28;20041;-69
2023/12/22 12:07:49;;;;;;;127.85;119.78;;;12.80;99.90;;;;;;5018101;28;20025;-68
2023/12/22 12:10:33;;;;;;;138.75;130.23;;;12.80;99.90;;;;;;5014627;28;20405;-68
2023/12/22 12:13:09;;;;;;;1532.25;780.25;;;12.90;99.90;;;;;;5014879;28;20064;-64
2023/12/22 12:15:35;;;;;;;1999.90;999.90;;;12.90;99.90;;;;;;5017147;28;20037;-67
2023/12/22 12:18:02;;;;;;;118.95;112.00;;;12.80;99.90;;;;;;5019917;28;20033;-67